sensor_id;sensor_type;location;lat;lon;timestamp;temperature;humidity
19813;DHT22;10066;48.108;11.448;2022-08-04T00:00:03;18.80;99.90
19813;DHT22;10066;48.108;11.448;2022-08-04T00:02:43;18.80;99.90
19813;DHT22;10066;48.108;11.448;2022-08-04T00:07:52;18.70;99.90
19813;DHT22;10066;48.108;11.448;2022-08-04T00:10:24;18.70;99.90
19813;DHT22;10066;48.108;11.448;2022-08-04T00:12:57;18.70;99.90
19813;DHT22;10066;48.108;11.448;2022-08-04T00:15:26;18.60;99.90
19813;DHT22;10066;48.108;11.448;2022-08-04T00:17:54;18.60;99.90
19813;DHT22;10066;48.108;11.448;2022-08-04T00:20:29;18.60;99.90
19813;DHT22;10066;48.108;11.448;2022-08-04T00:22:56;18.60;99.90
19813;DHT22;10066;48.108;11.448;2022-08-04T00:25:25;18.50;99.90
19813;DHT22;10066;48.108;11.448;2022-08-04T00:27:52;18.50;99.90
19813;DHT22;10066;48.108;11.448;2022-08-04T00:30:21;18.50;99.90
19813;DHT22;10066;48.108;11.448;2022-08-04T00:32:48;18.50;99.90
19813;DHT22;10066;48.108;11.448;2022-08-04T00:35:16;18.50;99.90
19813;DHT22;10066;48.108;11.448;2022-08-04T00:37:43;18.50;99.90
19813;DHT22;10066;48.108;11.448;2022-08-04T00:40:24;18.40;99.90
19813;DHT22;10066;48.108;11.448;2022-08-04T00:43:07;18.40;99.90
19813;DHT22;10066;48.108;11.448;2022-08-04T00:49:09;18.40;99.90
19813;DHT22;10066;48.108;11.448;2022-08-04T00:51:46;18.30;99.90
19813;DHT22;10066;48.108;11.448;2022-08-04T00:54:20;18.30;99.90
19813;DHT22;10066;48.108;11.448;2022-08-04T00:57:16;18.30;99.90
19813;DHT22;10066;48.108;11.448;2022-08-04T01:00:00;18.30;99.90
19813;DHT22;10066;48.108;11.448;2022-08-04T01:02:35;18.20;99.90
19813;DHT22;10066;48.108;11.448;2022-08-04T01:05:09;18.20;99.90
19813;DHT22;10066;48.108;11.448;2022-08-04T01:13:11;18.20;99.90
19813;DHT22;10066;48.108;11.448;2022-08-04T01:15:48;18.10;99.90
19813;DHT22;10066;48.108;11.448;2022-08-04T01:18:21;18.10;99.90
19813;DHT22;10066;48.108;11.448;2022-08-04T01:21:00;18.10;99.90
19813;DHT22;10066;48.108;11.448;2022-08-04T01:23:49;18.00;99.90
19813;DHT22;10066;48.108;11.448;2022-08-04T01:26:49;18.00;99.90
19813;DHT22;10066;48.108;11.448;2022-08-04T01:29:21;17.90;99.90
19813;DHT22;10066;48.108;11.448;2022-08-04T01:31:59;17.90;99.90
19813;DHT22;10066;48.108;11.448;2022-08-04T01:34:29;17.90;99.90
19813;DHT22;10066;48.108;11.448;2022-08-04T01:36:58;17.90;99.90
19813;DHT22;10066;48.108;11.448;2022-08-04T01:39:34;17.90;99.90
19813;DHT22;10066;48.108;11.448;2022-08-04T01:42:08;17.80;99.90
19813;DHT22;10066;48.108;11.448;2022-08-04T01:44:39;17.80;99.90
19813;DHT22;10066;48.108;11.448;2022-08-04T01:47:08;17.70;99.90
19813;DHT22;10066;48.108;11.448;2022-08-04T01:49:37;17.70;99.90
19813;DHT22;10066;48.108;11.448;2022-08-04T01:52:07;17.60;99.90
19813;DHT22;10066;48.108;11.448;2022-08-04T01:54:37;17.70;99.90
19813;DHT22;10066;48.108;11.448;2022-08-04T01:57:05;17.60;99.90
19813;DHT22;10066;48.108;11.448;2022-08-04T01:59:33;17.70;99.90
19813;DHT22;10066;48.108;11.448;2022-08-04T02:04:38;17.60;99.90
19813;DHT22;10066;48.108;11.448;2022-08-04T02:07:19;17.60;99.90
19813;DHT22;10066;48.108;11.448;2022-08-04T02:10:02;17.50;99.90
19813;DHT22;10066;48.108;11.448;2022-08-04T02:12:39;17.50;99.90
19813;DHT22;10066;48.108;11.448;2022-08-04T02:15:13;17.40;99.90
19813;DHT22;10066;48.108;11.448;2022-08-04T02:17:49;17.40;99.90
19813;DHT22;10066;48.108;11.448;2022-08-04T02:20:23;17.40;99.90
19813;DHT22;10066;48.108;11.448;2022-08-04T02:22:54;17.40;99.90
19813;DHT22;10066;48.108;11.448;2022-08-04T02:25:24;17.30;99.90
19813;DHT22;10066;48.108;11.448;2022-08-04T02:28:03;17.30;99.90
19813;DHT22;10066;48.108;11.448;2022-08-04T02:30:39;17.30;99.90
19813;DHT22;10066;48.108;11.448;2022-08-04T02:33:07;17.30;99.90
19813;DHT22;10066;48.108;11.448;2022-08-04T02:35:38;17.20;99.90
19813;DHT22;10066;48.108;11.448;2022-08-04T02:38:15;17.20;99.90
19813;DHT22;10066;48.108;11.448;2022-08-04T02:40:45;17.20;99.90
19813;DHT22;10066;48.108;11.448;2022-08-04T02:43:14;17.10;99.90
19813;DHT22;10066;48.108;11.448;2022-08-04T02:45:45;17.10;99.90
19813;DHT22;10066;48.108;11.448;2022-08-04T02:48:13;17.10;99.90
19813;DHT22;10066;48.108;11.448;2022-08-04T02:50:43;17.00;99.90
19813;DHT22;10066;48.108;11.448;2022-08-04T02:53:13;17.00;99.90
19813;DHT22;10066;48.108;11.448;2022-08-04T02:55:41;16.90;99.90
19813;DHT22;10066;48.108;11.448;2022-08-04T02:58:11;16.90;99.90
19813;DHT22;10066;48.108;11.448;2022-08-04T03:00:41;16.90;99.90
19813;DHT22;10066;48.108;11.448;2022-08-04T03:03:18;16.80;99.90
19813;DHT22;10066;48.108;11.448;2022-08-04T03:06:09;16.80;99.90
19813;DHT22;10066;48.108;11.448;2022-08-04T03:08:59;16.80;99.90
19813;DHT22;10066;48.108;11.448;2022-08-04T03:12:01;16.80;99.90
19813;DHT22;10066;48.108;11.448;2022-08-04T03:14:58;16.80;99.90
19813;DHT22;10066;48.108;11.448;2022-08-04T03:18:00;16.70;99.90
19813;DHT22;10066;48.108;11.448;2022-08-04T03:23:53;16.70;99.90
19813;DHT22;10066;48.108;11.448;2022-08-04T03:33:05;16.70;99.90
19813;DHT22;10066;48.108;11.448;2022-08-04T03:38:56;16.60;99.90
19813;DHT22;10066;48.108;11.448;2022-08-04T03:44:54;16.60;99.90
19813;DHT22;10066;48.108;11.448;2022-08-04T03:47:39;16.60;99.90
19813;DHT22;10066;48.108;11.448;2022-08-04T03:56:48;16.60;99.90
19813;DHT22;10066;48.108;11.448;2022-08-04T03:59:31;16.60;99.90
19813;DHT22;10066;48.108;11.448;2022-08-04T04:02:46;16.60;99.90
19813;DHT22;10066;48.108;11.448;2022-08-04T04:08:44;16.60;99.90
19813;DHT22;10066;48.108;11.448;2022-08-04T04:11:25;16.50;99.90
19813;DHT22;10066;48.108;11.448;2022-08-04T04:17:05;16.50;99.90
19813;DHT22;10066;48.108;11.448;2022-08-04T04:19:52;16.50;99.90
19813;DHT22;10066;48.108;11.448;2022-08-04T04:22:50;16.50;99.90
19813;DHT22;10066;48.108;11.448;2022-08-04T04:25:30;16.50;99.90
19813;DHT22;10066;48.108;11.448;2022-08-04T04:28:26;16.60;99.90
19813;DHT22;10066;48.108;11.448;2022-08-04T04:31:04;16.60;99.90
19813;DHT22;10066;48.108;11.448;2022-08-04T04:33:40;16.60;99.90
19813;DHT22;10066;48.108;11.448;2022-08-04T04:36:16;16.60;99.90
19813;DHT22;10066;48.108;11.448;2022-08-04T04:39:00;16.60;99.90
19813;DHT22;10066;48.108;11.448;2022-08-04T04:41:54;16.70;99.90
19813;DHT22;10066;48.108;11.448;2022-08-04T04:44:50;16.80;99.90
19813;DHT22;10066;48.108;11.448;2022-08-04T04:47:31;16.80;99.90
19813;DHT22;10066;48.108;11.448;2022-08-04T04:52:37;17.00;99.90
19813;DHT22;10066;48.108;11.448;2022-08-04T04:55:12;17.10;99.90
19813;DHT22;10066;48.108;11.448;2022-08-04T04:57:41;17.20;99.90
19813;DHT22;10066;48.108;11.448;2022-08-04T05:00:11;17.30;99.90
19813;DHT22;10066;48.108;11.448;2022-08-04T05:03:05;17.30;99.90
19813;DHT22;10066;48.108;11.448;2022-08-04T05:05:47;17.50;99.90
19813;DHT22;10066;48.108;11.448;2022-08-04T05:08:42;17.60;99.90
19813;DHT22;10066;48.108;11.448;2022-08-04T05:11:39;17.70;99.90
19813;DHT22;10066;48.108;11.448;2022-08-04T05:14:15;17.80;99.90
19813;DHT22;10066;48.108;11.448;2022-08-04T05:16:46;18.00;99.90
19813;DHT22;10066;48.108;11.448;2022-08-04T05:19:22;18.10;99.90
19813;DHT22;10066;48.108;11.448;2022-08-04T05:22:00;18.20;99.90
19813;DHT22;10066;48.108;11.448;2022-08-04T05:24:31;18.30;99.90
19813;DHT22;10066;48.108;11.448;2022-08-04T05:27:01;18.40;99.90
19813;DHT22;10066;48.108;11.448;2022-08-04T05:32:06;18.60;99.90
19813;DHT22;10066;48.108;11.448;2022-08-04T05:34:40;18.70;99.90
19813;DHT22;10066;48.108;11.448;2022-08-04T05:37:10;18.90;99.90
19813;DHT22;10066;48.108;11.448;2022-08-04T05:39:44;19.00;99.90
19813;DHT22;10066;48.108;11.448;2022-08-04T05:42:12;19.10;99.90
19813;DHT22;10066;48.108;11.448;2022-08-04T05:44:41;19.20;99.90
19813;DHT22;10066;48.108;11.448;2022-08-04T05:47:10;19.30;99.90
19813;DHT22;10066;48.108;11.448;2022-08-04T05:49:39;19.40;99.90
19813;DHT22;10066;48.108;11.448;2022-08-04T05:52:09;19.50;99.90
19813;DHT22;10066;48.108;11.448;2022-08-04T05:54:37;19.70;99.90
19813;DHT22;10066;48.108;11.448;2022-08-04T05:57:05;19.70;99.90
19813;DHT22;10066;48.108;11.448;2022-08-04T05:59:35;19.90;99.90
19813;DHT22;10066;48.108;11.448;2022-08-04T06:02:04;20.00;99.90
19813;DHT22;10066;48.108;11.448;2022-08-04T06:04:33;20.10;99.90
19813;DHT22;10066;48.108;11.448;2022-08-04T06:07:02;20.30;99.90
19813;DHT22;10066;48.108;11.448;2022-08-04T06:09:30;20.50;99.90
19813;DHT22;10066;48.108;11.448;2022-08-04T06:11:59;21.60;99.90
19813;DHT22;10066;48.108;11.448;2022-08-04T06:14:32;23.40;99.90
19813;DHT22;10066;48.108;11.448;2022-08-04T06:17:01;24.90;99.90
19813;DHT22;10066;48.108;11.448;2022-08-04T06:19:34;26.70;99.90
19813;DHT22;10066;48.108;11.448;2022-08-04T06:22:04;27.50;99.90
19813;DHT22;10066;48.108;11.448;2022-08-04T06:24:32;28.60;99.90
19813;DHT22;10066;48.108;11.448;2022-08-04T06:27:03;29.40;97.30
19813;DHT22;10066;48.108;11.448;2022-08-04T06:29:31;30.10;94.40
19813;DHT22;10066;48.108;11.448;2022-08-04T06:34:38;31.40;88.80
19813;DHT22;10066;48.108;11.448;2022-08-04T06:37:09;32.00;84.60
19813;DHT22;10066;48.108;11.448;2022-08-04T06:42:05;32.70;77.50
19813;DHT22;10066;48.108;11.448;2022-08-04T06:44:33;33.00;75.30
19813;DHT22;10066;48.108;11.448;2022-08-04T06:47:01;33.10;72.70
19813;DHT22;10066;48.108;11.448;2022-08-04T06:49:30;33.00;71.70
19813;DHT22;10066;48.108;11.448;2022-08-04T06:54:30;31.30;73.20
19813;DHT22;10066;48.108;11.448;2022-08-04T06:56:58;30.30;76.70
19813;DHT22;10066;48.108;11.448;2022-08-04T06:59:27;29.60;78.70
19813;DHT22;10066;48.108;11.448;2022-08-04T07:01:55;28.80;80.40
19813;DHT22;10066;48.108;11.448;2022-08-04T07:04:23;28.20;82.80
19813;DHT22;10066;48.108;11.448;2022-08-04T07:06:50;27.70;84.30
19813;DHT22;10066;48.108;11.448;2022-08-04T07:09:17;27.30;86.00
19813;DHT22;10066;48.108;11.448;2022-08-04T07:11:48;27.00;87.70
19813;DHT22;10066;48.108;11.448;2022-08-04T07:14:16;26.70;89.10
19813;DHT22;10066;48.108;11.448;2022-08-04T07:16:43;26.50;89.80
19813;DHT22;10066;48.108;11.448;2022-08-04T07:19:11;26.40;90.50
19813;DHT22;10066;48.108;11.448;2022-08-04T07:21:38;26.30;91.30
19813;DHT22;10066;48.108;11.448;2022-08-04T07:24:05;26.20;91.60
19813;DHT22;10066;48.108;11.448;2022-08-04T07:26:33;26.10;91.50
19813;DHT22;10066;48.108;11.448;2022-08-04T07:29:01;26.10;91.70
19813;DHT22;10066;48.108;11.448;2022-08-04T07:31:29;26.10;91.60
19813;DHT22;10066;48.108;11.448;2022-08-04T07:33:58;26.00;91.60
19813;DHT22;10066;48.108;11.448;2022-08-04T07:36:26;26.00;92.00
19813;DHT22;10066;48.108;11.448;2022-08-04T07:38:53;26.10;91.50
19813;DHT22;10066;48.108;11.448;2022-08-04T07:41:22;26.10;91.60
19813;DHT22;10066;48.108;11.448;2022-08-04T07:43:51;26.10;91.40
19813;DHT22;10066;48.108;11.448;2022-08-04T07:46:20;26.20;91.50
19813;DHT22;10066;48.108;11.448;2022-08-04T07:48:48;26.20;91.10
19813;DHT22;10066;48.108;11.448;2022-08-04T07:51:16;26.30;91.00
19813;DHT22;10066;48.108;11.448;2022-08-04T07:53:43;26.40;91.40
19813;DHT22;10066;48.108;11.448;2022-08-04T07:56:12;26.40;91.10
19813;DHT22;10066;48.108;11.448;2022-08-04T07:58:41;26.50;91.20
19813;DHT22;10066;48.108;11.448;2022-08-04T08:01:10;26.60;91.10
19813;DHT22;10066;48.108;11.448;2022-08-04T08:03:38;26.70;90.40
19813;DHT22;10066;48.108;11.448;2022-08-04T08:06:07;26.80;90.10
19813;DHT22;10066;48.108;11.448;2022-08-04T08:08:37;26.80;89.50
19813;DHT22;10066;48.108;11.448;2022-08-04T08:11:04;26.90;90.50
19813;DHT22;10066;48.108;11.448;2022-08-04T08:13:32;27.00;90.00
19813;DHT22;10066;48.108;11.448;2022-08-04T08:16:00;27.00;88.30
19813;DHT22;10066;48.108;11.448;2022-08-04T08:18:28;27.10;90.00
19813;DHT22;10066;48.108;11.448;2022-08-04T08:20:57;27.20;89.60
19813;DHT22;10066;48.108;11.448;2022-08-04T08:23:27;27.30;90.20
19813;DHT22;10066;48.108;11.448;2022-08-04T08:25:57;27.40;88.80
19813;DHT22;10066;48.108;11.448;2022-08-04T08:28:25;27.50;89.30
19813;DHT22;10066;48.108;11.448;2022-08-04T08:30:52;27.60;87.30
19813;DHT22;10066;48.108;11.448;2022-08-04T08:33:19;27.70;87.50
19813;DHT22;10066;48.108;11.448;2022-08-04T08:35:51;27.80;87.70
19813;DHT22;10066;48.108;11.448;2022-08-04T08:38:27;27.90;85.00
19813;DHT22;10066;48.108;11.448;2022-08-04T08:41:20;27.90;83.40
19813;DHT22;10066;48.108;11.448;2022-08-04T08:44:03;28.00;82.20
19813;DHT22;10066;48.108;11.448;2022-08-04T08:46:46;28.00;82.90
19813;DHT22;10066;48.108;11.448;2022-08-04T08:52:35;28.20;83.20
19813;DHT22;10066;48.108;11.448;2022-08-04T08:55:17;28.30;80.20
19813;DHT22;10066;48.108;11.448;2022-08-04T08:58:08;28.40;80.70
19813;DHT22;10066;48.108;11.448;2022-08-04T09:00:46;28.50;81.60
19813;DHT22;10066;48.108;11.448;2022-08-04T09:06:45;28.80;81.80
19813;DHT22;10066;48.108;11.448;2022-08-04T09:09:42;28.90;79.10
19813;DHT22;10066;48.108;11.448;2022-08-04T09:12:21;29.00;76.30
19813;DHT22;10066;48.108;11.448;2022-08-04T09:14:53;29.00;77.30
19813;DHT22;10066;48.108;11.448;2022-08-04T09:17:27;29.10;77.80
19813;DHT22;10066;48.108;11.448;2022-08-04T09:19:58;29.20;77.50
19813;DHT22;10066;48.108;11.448;2022-08-04T09:22:34;29.30;78.10
19813;DHT22;10066;48.108;11.448;2022-08-04T09:25:06;29.30;77.60
19813;DHT22;10066;48.108;11.448;2022-08-04T09:27:45;29.40;75.30
19813;DHT22;10066;48.108;11.448;2022-08-04T09:30:16;29.50;73.50
19813;DHT22;10066;48.108;11.448;2022-08-04T09:32:51;29.60;73.70
19813;DHT22;10066;48.108;11.448;2022-08-04T09:35:28;29.60;73.50
19813;DHT22;10066;48.108;11.448;2022-08-04T09:38:08;29.70;73.90
19813;DHT22;10066;48.108;11.448;2022-08-04T09:40:42;29.70;72.70
19813;DHT22;10066;48.108;11.448;2022-08-04T09:43:19;29.80;72.30
19813;DHT22;10066;48.108;11.448;2022-08-04T09:46:01;29.80;70.10
19813;DHT22;10066;48.108;11.448;2022-08-04T09:48:34;29.90;69.30
19813;DHT22;10066;48.108;11.448;2022-08-04T09:51:15;30.00;69.60
19813;DHT22;10066;48.108;11.448;2022-08-04T09:53:54;30.00;68.20
19813;DHT22;10066;48.108;11.448;2022-08-04T09:56:27;30.00;68.70
19813;DHT22;10066;48.108;11.448;2022-08-04T09:59:09;30.10;69.40
19813;DHT22;10066;48.108;11.448;2022-08-04T10:01:37;30.20;69.60
19813;DHT22;10066;48.108;11.448;2022-08-04T10:04:08;30.30;69.90
19813;DHT22;10066;48.108;11.448;2022-08-04T10:06:47;30.30;69.10
19813;DHT22;10066;48.108;11.448;2022-08-04T10:09:33;30.40;68.40
19813;DHT22;10066;48.108;11.448;2022-08-04T10:12:20;30.40;65.30
19813;DHT22;10066;48.108;11.448;2022-08-04T10:15:02;30.40;65.90
19813;DHT22;10066;48.108;11.448;2022-08-04T10:17:49;30.40;66.00
19813;DHT22;10066;48.108;11.448;2022-08-04T10:20:25;30.50;65.40
19813;DHT22;10066;48.108;11.448;2022-08-04T10:23:08;30.50;66.00
19813;DHT22;10066;48.108;11.448;2022-08-04T10:25:44;30.60;65.20
19813;DHT22;10066;48.108;11.448;2022-08-04T10:28:19;30.60;63.50
19813;DHT22;10066;48.108;11.448;2022-08-04T10:30:51;30.60;64.20
19813;DHT22;10066;48.108;11.448;2022-08-04T10:33:24;30.60;64.00
19813;DHT22;10066;48.108;11.448;2022-08-04T10:35:57;30.60;63.50
19813;DHT22;10066;48.108;11.448;2022-08-04T10:38:29;30.50;63.50
19813;DHT22;10066;48.108;11.448;2022-08-04T10:41:01;30.50;62.60
19813;DHT22;10066;48.108;11.448;2022-08-04T10:43:40;30.60;63.00
19813;DHT22;10066;48.108;11.448;2022-08-04T10:46:15;30.70;62.90
19813;DHT22;10066;48.108;11.448;2022-08-04T10:48:48;30.70;62.20
19813;DHT22;10066;48.108;11.448;2022-08-04T10:51:24;30.80;62.40
19813;DHT22;10066;48.108;11.448;2022-08-04T10:53:58;30.90;62.20
19813;DHT22;10066;48.108;11.448;2022-08-04T10:56:32;30.90;61.80
19813;DHT22;10066;48.108;11.448;2022-08-04T10:59:10;30.90;61.60
19813;DHT22;10066;48.108;11.448;2022-08-04T11:01:43;31.00;61.70
19813;DHT22;10066;48.108;11.448;2022-08-04T11:04:20;31.10;60.80
19813;DHT22;10066;48.108;11.448;2022-08-04T11:06:49;31.20;60.80
19813;DHT22;10066;48.108;11.448;2022-08-04T11:09:18;31.20;58.90
19813;DHT22;10066;48.108;11.448;2022-08-04T11:11:52;31.30;58.40
19813;DHT22;10066;48.108;11.448;2022-08-04T11:14:23;31.40;58.40
19813;DHT22;10066;48.108;11.448;2022-08-04T11:16:59;31.50;57.90
19813;DHT22;10066;48.108;11.448;2022-08-04T11:19:31;31.60;58.10
19813;DHT22;10066;48.108;11.448;2022-08-04T11:22:05;31.60;57.70
19813;DHT22;10066;48.108;11.448;2022-08-04T11:24:39;31.80;58.70
19813;DHT22;10066;48.108;11.448;2022-08-04T11:27:13;31.80;57.30
19813;DHT22;10066;48.108;11.448;2022-08-04T11:29:51;31.90;57.30
19813;DHT22;10066;48.108;11.448;2022-08-04T11:32:33;32.00;56.50
19813;DHT22;10066;48.108;11.448;2022-08-04T11:35:05;32.10;56.90
19813;DHT22;10066;48.108;11.448;2022-08-04T11:37:41;32.10;54.50
19813;DHT22;10066;48.108;11.448;2022-08-04T11:40:14;32.10;55.00
19813;DHT22;10066;48.108;11.448;2022-08-04T11:42:51;32.20;55.90
19813;DHT22;10066;48.108;11.448;2022-08-04T11:45:26;32.20;55.20
19813;DHT22;10066;48.108;11.448;2022-08-04T11:47:58;32.20;55.00
19813;DHT22;10066;48.108;11.448;2022-08-04T11:50:30;32.30;53.80
19813;DHT22;10066;48.108;11.448;2022-08-04T11:52:58;32.30;54.90
19813;DHT22;10066;48.108;11.448;2022-08-04T11:55:27;32.30;54.60
19813;DHT22;10066;48.108;11.448;2022-08-04T11:57:55;32.40;53.80
19813;DHT22;10066;48.108;11.448;2022-08-04T12:00:24;32.40;53.00
19813;DHT22;10066;48.108;11.448;2022-08-04T12:03:11;32.40;52.90
19813;DHT22;10066;48.108;11.448;2022-08-04T12:05:50;32.50;53.30
19813;DHT22;10066;48.108;11.448;2022-08-04T12:08:28;32.50;52.60
19813;DHT22;10066;48.108;11.448;2022-08-04T12:11:08;32.50;51.70
19813;DHT22;10066;48.108;11.448;2022-08-04T12:13:42;32.50;51.70
19813;DHT22;10066;48.108;11.448;2022-08-04T12:16:16;32.50;51.70
19813;DHT22;10066;48.108;11.448;2022-08-04T12:18:49;32.50;51.40
19813;DHT22;10066;48.108;11.448;2022-08-04T12:21:27;32.40;50.70
19813;DHT22;10066;48.108;11.448;2022-08-04T12:24:00;32.40;51.70
19813;DHT22;10066;48.108;11.448;2022-08-04T12:26:33;32.40;50.80
19813;DHT22;10066;48.108;11.448;2022-08-04T12:29:01;32.40;51.50
19813;DHT22;10066;48.108;11.448;2022-08-04T12:31:34;32.50;50.30
19813;DHT22;10066;48.108;11.448;2022-08-04T12:34:07;32.50;49.80
19813;DHT22;10066;48.108;11.448;2022-08-04T12:36:42;32.50;49.40
19813;DHT22;10066;48.108;11.448;2022-08-04T12:39:16;32.50;49.70
19813;DHT22;10066;48.108;11.448;2022-08-04T12:42:01;32.50;49.20
19813;DHT22;10066;48.108;11.448;2022-08-04T12:44:34;32.50;49.40
19813;DHT22;10066;48.108;11.448;2022-08-04T12:47:04;32.50;49.70
19813;DHT22;10066;48.108;11.448;2022-08-04T12:49:37;32.50;49.60
19813;DHT22;10066;48.108;11.448;2022-08-04T12:52:05;32.60;50.40
19813;DHT22;10066;48.108;11.448;2022-08-04T12:54:34;32.60;49.80
19813;DHT22;10066;48.108;11.448;2022-08-04T12:57:03;32.70;49.50
19813;DHT22;10066;48.108;11.448;2022-08-04T12:59:37;32.70;48.80
19813;DHT22;10066;48.108;11.448;2022-08-04T13:02:05;32.70;48.80
19813;DHT22;10066;48.108;11.448;2022-08-04T13:04:35;32.60;48.90
19813;DHT22;10066;48.108;11.448;2022-08-04T13:07:19;32.60;48.90
19813;DHT22;10066;48.108;11.448;2022-08-04T13:09:47;32.70;48.20
19813;DHT22;10066;48.108;11.448;2022-08-04T13:12:15;32.60;48.20
19813;DHT22;10066;48.108;11.448;2022-08-04T13:14:43;32.60;48.00
19813;DHT22;10066;48.108;11.448;2022-08-04T13:17:14;32.50;48.00
19813;DHT22;10066;48.108;11.448;2022-08-04T13:19:46;32.50;48.60
19813;DHT22;10066;48.108;11.448;2022-08-04T13:22:23;32.50;48.70
19813;DHT22;10066;48.108;11.448;2022-08-04T13:24:50;32.40;48.40
19813;DHT22;10066;48.108;11.448;2022-08-04T13:27:20;32.40;48.90
19813;DHT22;10066;48.108;11.448;2022-08-04T13:29:50;32.50;48.50
19813;DHT22;10066;48.108;11.448;2022-08-04T13:32:19;32.50;48.50
19813;DHT22;10066;48.108;11.448;2022-08-04T13:34:50;32.50;48.20
19813;DHT22;10066;48.108;11.448;2022-08-04T13:37:21;32.50;48.50
19813;DHT22;10066;48.108;11.448;2022-08-04T13:39:50;32.60;48.10
19813;DHT22;10066;48.108;11.448;2022-08-04T13:42:18;32.60;48.20
19813;DHT22;10066;48.108;11.448;2022-08-04T13:44:47;32.60;47.80
19813;DHT22;10066;48.108;11.448;2022-08-04T13:47:19;32.60;47.80
19813;DHT22;10066;48.108;11.448;2022-08-04T13:50:09;32.60;48.50
19813;DHT22;10066;48.108;11.448;2022-08-04T13:52:38;32.70;48.20
19813;DHT22;10066;48.108;11.448;2022-08-04T13:55:05;32.80;48.70
19813;DHT22;10066;48.108;11.448;2022-08-04T13:57:42;32.80;49.20
19813;DHT22;10066;48.108;11.448;2022-08-04T14:00:10;32.90;49.20
19813;DHT22;10066;48.108;11.448;2022-08-04T14:02:41;33.00;48.50
19813;DHT22;10066;48.108;11.448;2022-08-04T14:05:14;32.90;48.00
19813;DHT22;10066;48.108;11.448;2022-08-04T14:07:45;32.90;48.00
19813;DHT22;10066;48.108;11.448;2022-08-04T14:10:13;32.80;48.10
19813;DHT22;10066;48.108;11.448;2022-08-04T14:12:45;32.80;48.40
19813;DHT22;10066;48.108;11.448;2022-08-04T14:15:29;32.90;48.60
19813;DHT22;10066;48.108;11.448;2022-08-04T14:18:15;32.90;48.20
19813;DHT22;10066;48.108;11.448;2022-08-04T14:21:02;32.90;48.50
19813;DHT22;10066;48.108;11.448;2022-08-04T14:23:42;32.80;48.20
19813;DHT22;10066;48.108;11.448;2022-08-04T14:26:21;32.80;48.50
19813;DHT22;10066;48.108;11.448;2022-08-04T14:28:49;32.80;48.20
19813;DHT22;10066;48.108;11.448;2022-08-04T14:31:18;32.90;48.50
19813;DHT22;10066;48.108;11.448;2022-08-04T14:33:48;32.90;48.30
19813;DHT22;10066;48.108;11.448;2022-08-04T14:36:18;32.90;48.80
19813;DHT22;10066;48.108;11.448;2022-08-04T14:38:53;32.90;49.60
19813;DHT22;10066;48.108;11.448;2022-08-04T14:41:23;32.90;48.80
19813;DHT22;10066;48.108;11.448;2022-08-04T14:43:52;32.90;49.10
19813;DHT22;10066;48.108;11.448;2022-08-04T14:46:20;32.80;48.90
19813;DHT22;10066;48.108;11.448;2022-08-04T14:49:01;32.80;49.10
19813;DHT22;10066;48.108;11.448;2022-08-04T14:51:35;32.80;48.80
19813;DHT22;10066;48.108;11.448;2022-08-04T14:54:03;32.80;48.70
19813;DHT22;10066;48.108;11.448;2022-08-04T14:56:31;32.80;49.20
19813;DHT22;10066;48.108;11.448;2022-08-04T14:59:00;32.80;48.90
19813;DHT22;10066;48.108;11.448;2022-08-04T15:01:28;32.80;49.10
19813;DHT22;10066;48.108;11.448;2022-08-04T15:03:57;32.80;48.80
19813;DHT22;10066;48.108;11.448;2022-08-04T15:06:28;32.80;48.90
19813;DHT22;10066;48.108;11.448;2022-08-04T15:09:03;32.80;48.60
19813;DHT22;10066;48.108;11.448;2022-08-04T15:11:32;32.80;48.20
19813;DHT22;10066;48.108;11.448;2022-08-04T15:13:59;32.80;48.20
19813;DHT22;10066;48.108;11.448;2022-08-04T15:16:28;32.80;48.10
19813;DHT22;10066;48.108;11.448;2022-08-04T15:18:55;32.80;48.70
19813;DHT22;10066;48.108;11.448;2022-08-04T15:21:25;32.80;48.40
19813;DHT22;10066;48.108;11.448;2022-08-04T15:23:52;32.80;48.90
19813;DHT22;10066;48.108;11.448;2022-08-04T15:26:28;32.70;48.40
19813;DHT22;10066;48.108;11.448;2022-08-04T15:29:00;32.70;48.40
19813;DHT22;10066;48.108;11.448;2022-08-04T15:31:29;32.70;48.10
19813;DHT22;10066;48.108;11.448;2022-08-04T15:34:00;32.70;48.20
19813;DHT22;10066;48.108;11.448;2022-08-04T15:36:34;32.70;48.50
19813;DHT22;10066;48.108;11.448;2022-08-04T15:39:05;32.60;48.40
19813;DHT22;10066;48.108;11.448;2022-08-04T15:41:55;32.60;47.20
19813;DHT22;10066;48.108;11.448;2022-08-04T15:47:26;32.60;47.30
19813;DHT22;10066;48.108;11.448;2022-08-04T15:50:05;32.50;47.50
19813;DHT22;10066;48.108;11.448;2022-08-04T15:53:01;32.60;47.70
19813;DHT22;10066;48.108;11.448;2022-08-04T15:55:33;32.60;47.20
19813;DHT22;10066;48.108;11.448;2022-08-04T15:58:03;32.60;47.70
19813;DHT22;10066;48.108;11.448;2022-08-04T16:03:46;32.60;48.00
19813;DHT22;10066;48.108;11.448;2022-08-04T16:06:41;32.50;48.00
19813;DHT22;10066;48.108;11.448;2022-08-04T16:09:25;32.50;48.20
19813;DHT22;10066;48.108;11.448;2022-08-04T16:11:53;32.50;47.90
19813;DHT22;10066;48.108;11.448;2022-08-04T16:14:32;32.40;47.90
19813;DHT22;10066;48.108;11.448;2022-08-04T16:17:16;32.40;48.00
19813;DHT22;10066;48.108;11.448;2022-08-04T16:20:02;32.30;47.90
19813;DHT22;10066;48.108;11.448;2022-08-04T16:22:35;32.30;47.30
19813;DHT22;10066;48.108;11.448;2022-08-04T16:25:05;32.30;47.70
19813;DHT22;10066;48.108;11.448;2022-08-04T16:27:40;32.30;47.70
19813;DHT22;10066;48.108;11.448;2022-08-04T16:30:12;32.20;47.10
19813;DHT22;10066;48.108;11.448;2022-08-04T16:32:41;32.20;47.00
19813;DHT22;10066;48.108;11.448;2022-08-04T16:35:25;32.10;47.10
19813;DHT22;10066;48.108;11.448;2022-08-04T16:38:10;32.00;47.70
19813;DHT22;10066;48.108;11.448;2022-08-04T16:40:38;32.00;47.90
19813;DHT22;10066;48.108;11.448;2022-08-04T16:43:10;32.00;48.00
19813;DHT22;10066;48.108;11.448;2022-08-04T16:45:44;32.00;48.20
19813;DHT22;10066;48.108;11.448;2022-08-04T16:48:12;32.00;48.30
19813;DHT22;10066;48.108;11.448;2022-08-04T16:50:54;32.00;47.80
19813;DHT22;10066;48.108;11.448;2022-08-04T16:53:24;32.00;48.20
19813;DHT22;10066;48.108;11.448;2022-08-04T16:55:53;32.00;48.50
19813;DHT22;10066;48.108;11.448;2022-08-04T16:58:28;32.00;48.50
19813;DHT22;10066;48.108;11.448;2022-08-04T17:01:07;32.00;48.00
19813;DHT22;10066;48.108;11.448;2022-08-04T17:03:36;31.90;47.90
19813;DHT22;10066;48.108;11.448;2022-08-04T17:06:05;31.90;47.50